KRYY/RYY METAR and TAF weather

Enter ICAO airport designator
Station Type Date Time Source
KRYY METAR 2022/06/27 16:57 UTC NOAA

KRYY 271657Z VRB04KT 10SM BKN027 BKN120 29/22 A3013 RMK AO2 $


Station Type Date Time Source
KRYY Decoded METAR 2022/06/27 16:57 UTC NOAA

Marietta, Cobb County-McCollum Field Airport, GA, United States (KRYY) 34-00-47N 084-35-55W
Jun 27, 2022 - 12:57 PM EDT / 2022.06.27 1657 UTC
Wind: Variable at 5 MPH (4 KT):0
Visibility: 10 mile(s):0
Sky conditions: mostly cloudy
Temperature: 84 F (29 C)
Dew Point: 71 F (22 C)
Relative Humidity: 65%
Pressure (altimeter): 30.13 in. Hg (1020 hPa)
ob: KRYY 271657Z VRB04KT 10SM BKN027 BKN120 29/22 A3013 RMK AO2
cycle: 17

Station Type Date Time Source
KRYY TAF 2022/06/27 18:36 UTC NOAA

TAF KRYY 271733Z 2718/2818 32007KT P6SM -SHRA FEW040 BKN080
TEMPO 2719/2723 4SM TSRA BR OVC025CB
FM272300 33006KT P6SM VCSH BKN080
FM280800 04003KT P6SM BKN040
FM281200 08008KT P6SM FEW008 BKN015
FM281700 09008KT P6SM VCSH BKN030

Example: see airport list